createdAt,value
2022-12-11T00:01:22.029Z,42.53
2022-12-11T00:03:52.653Z,42.15
2022-12-11T00:06:22.838Z,41.63
2022-12-11T00:08:55.206Z,40.05
2022-12-11T00:11:23.991Z,31.13
2022-12-11T00:13:54.545Z,33.22
2022-12-11T00:16:27.066Z,34.40
2022-12-11T00:18:56.954Z,31.08
2022-12-11T00:21:24.983Z,32.90
2022-12-11T00:23:57.247Z,34.38
2022-12-11T00:26:25.111Z,34.53
2022-12-11T00:28:55.748Z,38.33
2022-12-11T00:31:24.686Z,33.88
2022-12-11T00:33:52.618Z,32.45
2022-12-11T00:36:23.757Z,36.67
2022-12-11T00:38:53.121Z,33.95
2022-12-11T00:41:21.609Z,38.03
2022-12-11T00:43:49.484Z,34.47
2022-12-11T00:46:18.164Z,38.67
2022-12-11T00:48:46.518Z,36.33
2022-12-11T00:51:14.390Z,33.65
2022-12-11T00:53:42.140Z,36.13
2022-12-11T00:56:15.228Z,34.78
2022-12-11T00:58:43.226Z,37.30
2022-12-11T01:01:14.401Z,41.30
2022-12-11T01:03:42.353Z,36.03
2022-12-11T01:06:15.157Z,40.17
2022-12-11T01:08:44.099Z,38.90
2022-12-11T01:11:14.072Z,39.70
2022-12-11T01:13:42.701Z,38.00
2022-12-11T01:16:15.069Z,36.55
2022-12-11T01:18:43.620Z,36.40
2022-12-11T01:21:13.539Z,37.38
2022-12-11T01:23:41.381Z,32.95
2022-12-11T01:26:11.532Z,38.78
2022-12-11T01:28:40.478Z,41.08
2022-12-11T01:31:13.611Z,40.72
2022-12-11T01:33:41.998Z,37.50
2022-12-11T01:36:16.211Z,42.22
2022-12-11T01:38:44.897Z,45.75
2022-12-11T01:41:13.072Z,41.83
2022-12-11T01:44:01.725Z,39.50
2022-12-11T01:46:32.985Z,38.33
2022-12-11T01:49:03.298Z,36.00
2022-12-11T01:54:05.883Z,35.40
2022-12-11T01:56:35.928Z,32.60
2022-12-11T01:59:07.581Z,37.38
2022-12-11T02:02:21.801Z,38.22
2022-12-11T02:04:49.951Z,36.03
2022-12-11T02:07:20.342Z,36.63
2022-12-11T02:09:48.784Z,34.13
2022-12-11T02:12:16.564Z,42.47
2022-12-11T02:14:50.265Z,36.72
2022-12-11T02:17:43.667Z,34.58
2022-12-11T02:20:27.659Z,34.90
2022-12-11T02:23:16.811Z,39.67
2022-12-11T02:26:09.785Z,38.55
2022-12-11T02:28:53.501Z,39.55
2022-12-11T02:31:46.800Z,39.97
2022-12-11T02:34:44.645Z,32.03
2022-12-11T02:37:21.747Z,29.98
2022-12-11T02:39:52.079Z,28.15
2022-12-11T02:42:21.495Z,33.22
2022-12-11T02:44:51.999Z,32.93
2022-12-11T02:49:50.503Z,32.22
2022-12-11T02:52:22.450Z,37.45
2022-12-11T02:54:53.874Z,28.98
2022-12-11T02:57:36.147Z,31.33
2022-12-11T03:00:05.668Z,33.08
2022-12-11T03:02:33.661Z,27.30
2022-12-11T03:05:01.869Z,28.27
2022-12-11T03:07:37.449Z,29.38
2022-12-11T03:10:07.618Z,31.80
2022-12-11T03:12:40.635Z,30.27
2022-12-11T03:15:13.959Z,29.42
2022-12-11T03:18:14.211Z,35.95
2022-12-11T03:21:01.192Z,26.80
2022-12-11T03:23:37.309Z,29.60
2022-12-11T03:26:10.780Z,30.50
2022-12-11T03:28:50.610Z,37.83
2022-12-11T03:31:28.708Z,30.67
2022-12-11T03:34:01.300Z,36.67
2022-12-11T03:36:33.749Z,32.53
2022-12-11T03:39:16.816Z,31.08
2022-12-11T03:41:47.044Z,44.15
2022-12-11T03:44:16.143Z,35.45
2022-12-11T03:46:46.556Z,31.00
2022-12-11T03:54:13.660Z,36.03
2022-12-11T03:56:44.377Z,36.53
2022-12-11T03:59:12.252Z,30.23
2022-12-11T04:01:40.104Z,33.03
2022-12-11T04:04:07.927Z,28.98
2022-12-11T04:06:35.675Z,30.98
2022-12-11T04:09:03.593Z,31.17
2022-12-11T04:11:37.312Z,28.92
2022-12-11T04:14:31.302Z,29.92
2022-12-11T04:17:00.286Z,29.90
2022-12-11T04:19:47.043Z,27.60
2022-12-11T04:22:35.316Z,25.17
2022-12-11T04:25:04.692Z,31.67
2022-12-11T04:27:50.981Z,31.67
2022-12-11T04:30:21.928Z,27.05
2022-12-11T04:32:50.371Z,29.45
2022-12-11T04:35:18.195Z,28.48
2022-12-11T04:37:46.160Z,33.25
2022-12-11T04:40:15.936Z,28.17
2022-12-11T04:42:44.125Z,29.98
2022-12-11T04:45:13.571Z,30.85
2022-12-11T04:47:41.977Z,32.10
2022-12-11T04:50:11.606Z,25.15
2022-12-11T04:52:39.349Z,25.27
2022-12-11T04:55:08.709Z,28.75
2022-12-11T04:57:36.898Z,28.02
2022-12-11T05:00:10.317Z,23.77
2022-12-11T05:02:39.159Z,28.15
2022-12-11T05:05:12.338Z,26.90
2022-12-11T05:07:41.084Z,27.85
2022-12-11T05:10:12.193Z,28.33
2022-12-11T05:12:39.965Z,27.45
2022-12-11T05:15:10.995Z,28.08
2022-12-11T05:17:39.041Z,25.85
2022-12-11T05:20:07.672Z,29.00
2022-12-11T05:22:35.658Z,26.67
2022-12-11T05:25:03.907Z,25.85
2022-12-11T05:27:31.889Z,24.08
2022-12-11T05:29:59.877Z,23.75
2022-12-11T05:32:27.584Z,25.30
2022-12-11T05:34:55.997Z,24.15
2022-12-11T05:37:25.887Z,24.38
2022-12-11T05:39:53.634Z,23.40
2022-12-11T05:42:25.512Z,31.33
2022-12-11T05:44:56.451Z,27.17
2022-12-11T05:47:24.230Z,25.45
2022-12-11T05:49:52.337Z,24.35
2022-12-11T05:52:20.126Z,24.20
2022-12-11T05:54:50.524Z,23.90
2022-12-11T05:59:45.630Z,24.33
2022-12-11T06:02:13.522Z,24.73
2022-12-11T06:04:41.302Z,24.63
2022-12-11T06:07:09.063Z,25.75
2022-12-11T06:09:36.802Z,24.00
2022-12-11T06:12:04.694Z,25.60
2022-12-11T06:14:32.422Z,25.75
2022-12-11T06:17:00.051Z,28.08
2022-12-11T06:19:31.931Z,24.42
2022-12-11T06:22:03.040Z,23.55
2022-12-11T06:24:30.817Z,28.35
2022-12-11T06:26:58.514Z,27.40
2022-12-11T06:29:26.212Z,24.80
2022-12-11T06:31:54.015Z,24.90
2022-12-11T06:34:21.749Z,26.60
2022-12-11T06:36:49.414Z,26.73
2022-12-11T06:39:17.086Z,25.35
2022-12-11T06:41:45.058Z,23.75
2022-12-11T06:44:12.824Z,30.65
2022-12-11T06:46:40.673Z,25.40
2022-12-11T06:49:08.311Z,24.55
2022-12-11T06:51:36.171Z,24.35
2022-12-11T06:54:03.981Z,24.58
2022-12-11T06:56:31.706Z,23.90
2022-12-11T06:59:04.207Z,24.80
2022-12-11T07:01:34.747Z,24.40
2022-12-11T07:04:42.749Z,23.92
2022-12-11T07:07:13.789Z,24.73
2022-12-11T07:09:41.710Z,19.33
2022-12-11T07:12:11.848Z,22.15
2022-12-11T07:14:39.566Z,25.75
2022-12-11T07:17:07.307Z,24.20
2022-12-11T07:19:35.097Z,25.33
2022-12-11T07:22:02.836Z,24.63
2022-12-11T07:24:30.606Z,25.75
2022-12-11T07:26:58.417Z,26.45
2022-12-11T07:29:26.236Z,27.88
2022-12-11T07:31:54.312Z,27.33
2022-12-11T07:34:22.430Z,27.65
2022-12-11T07:36:50.222Z,29.17
2022-12-11T07:39:18.107Z,25.02
2022-12-11T07:41:48.323Z,23.38
2022-12-11T07:44:18.131Z,26.05
2022-12-11T07:46:45.927Z,25.70
2022-12-11T07:49:13.915Z,25.52
2022-12-11T07:51:43.203Z,23.05
2022-12-11T07:54:16.990Z,48.08
2022-12-11T07:56:52.744Z,28.45
2022-12-11T07:59:21.434Z,30.55
2022-12-11T08:01:49.366Z,48.20
2022-12-11T08:04:17.071Z,46.47
2022-12-11T08:06:45.253Z,80.43
2022-12-11T08:09:21.002Z,101.40
2022-12-11T08:11:50.996Z,68.30
2022-12-11T08:14:19.925Z,63.13
2022-12-11T08:16:48.105Z,94.30
2022-12-11T08:19:16.540Z,123.82
2022-12-11T08:21:44.708Z,81.07
2022-12-11T08:24:12.734Z,63.85
2022-12-11T08:26:40.590Z,62.78
2022-12-11T08:29:08.452Z,73.63
2022-12-11T08:31:36.189Z,55.75
2022-12-11T08:34:03.998Z,69.95
2022-12-11T08:36:31.930Z,84.55
2022-12-11T08:39:00.663Z,56.20
2022-12-11T08:41:30.354Z,50.58
2022-12-11T08:44:00.411Z,59.10
2022-12-11T08:46:30.990Z,73.22
2022-12-11T08:51:29.115Z,51.28
2022-12-11T08:53:58.951Z,46.97
2022-12-11T08:56:28.065Z,70.70
2022-12-11T08:58:59.152Z,80.77
2022-12-11T09:01:28.090Z,46.67
2022-12-11T09:03:57.507Z,56.63
2022-12-11T09:12:16.490Z,74.05
2022-12-11T09:14:44.206Z,54.00
2022-12-11T09:17:12.020Z,54.97
2022-12-11T09:19:39.806Z,74.90
2022-12-11T09:22:11.406Z,68.88
2022-12-11T09:24:46.498Z,42.33
2022-12-11T09:27:14.753Z,64.78
2022-12-11T09:29:46.181Z,42.67
2022-12-11T09:32:16.911Z,42.97
2022-12-11T09:35:05.521Z,44.53
2022-12-11T09:37:34.842Z,48.70
2022-12-11T09:40:07.521Z,45.38
2022-12-11T09:43:38.556Z,55.58
2022-12-11T09:46:12.886Z,42.30
2022-12-11T09:48:43.474Z,49.63
2022-12-11T09:51:47.501Z,42.30
2022-12-11T09:54:15.639Z,43.83
2022-12-11T09:56:53.851Z,45.22
2022-12-11T09:59:26.564Z,53.58
2022-12-11T10:02:19.801Z,37.80
2022-12-11T10:04:53.686Z,36.67
2022-12-11T10:07:37.590Z,38.10
2022-12-11T10:10:31.599Z,32.05
2022-12-11T10:13:32.194Z,37.53
2022-12-11T10:16:11.866Z,35.53
2022-12-11T10:18:40.616Z,33.67
2022-12-11T10:21:09.718Z,36.97
2022-12-11T10:23:54.681Z,35.80
2022-12-11T10:26:24.105Z,39.58
2022-12-11T10:28:52.267Z,37.63
2022-12-11T10:31:24.634Z,44.67
2022-12-11T10:34:15.560Z,34.35
2022-12-11T10:36:43.827Z,38.78
2022-12-11T10:39:16.469Z,45.45
2022-12-11T10:41:46.772Z,41.97
2022-12-11T10:44:24.289Z,76.70
2022-12-11T10:47:14.016Z,46.92
2022-12-11T10:49:56.838Z,40.63
2022-12-11T10:52:48.652Z,41.17
2022-12-11T10:55:57.347Z,47.20
2022-12-11T10:58:34.561Z,53.70
2022-12-11T11:01:19.100Z,43.00
2022-12-11T11:03:59.955Z,44.72
2022-12-11T11:06:27.869Z,49.67
2022-12-11T11:09:01.673Z,54.45
2022-12-11T11:11:36.863Z,59.38
2022-12-11T11:14:17.131Z,66.18
2022-12-11T11:16:50.051Z,67.00
2022-12-11T11:19:36.578Z,53.03
2022-12-11T11:22:08.729Z,70.32
2022-12-11T11:24:59.556Z,50.30
2022-12-11T11:27:37.126Z,52.25
2022-12-11T11:30:17.449Z,49.28
2022-12-11T11:32:45.842Z,53.20
2022-12-11T11:35:13.888Z,58.95
2022-12-11T11:37:48.403Z,46.47
2022-12-11T11:40:25.609Z,51.65
2022-12-11T11:43:01.986Z,58.17
2022-12-11T11:45:56.581Z,60.08
2022-12-11T11:48:48.295Z,50.17
2022-12-11T11:51:23.103Z,46.53
2022-12-11T11:53:55.884Z,52.10
2022-12-11T11:56:37.793Z,50.67
2022-12-11T11:59:28.922Z,49.33
2022-12-11T12:01:59.812Z,45.17
2022-12-11T12:04:34.029Z,50.53
2022-12-11T12:07:20.069Z,49.45
2022-12-11T12:10:12.729Z,44.80
2022-12-11T12:13:01.508Z,47.13
2022-12-11T12:15:55.513Z,42.80
2022-12-11T12:18:51.982Z,42.28
2022-12-11T12:21:30.127Z,46.38
2022-12-11T12:24:04.085Z,44.20
2022-12-11T12:26:37.736Z,52.97
2022-12-11T12:29:14.677Z,48.17
2022-12-11T12:32:11.389Z,49.78
2022-12-11T12:34:41.979Z,50.10
2022-12-11T12:39:49.073Z,49.65
2022-12-11T12:42:17.037Z,52.05
2022-12-11T12:45:03.786Z,47.85
2022-12-11T12:47:34.320Z,49.17
2022-12-11T12:50:10.433Z,53.40
2022-12-11T12:52:41.248Z,50.67
2022-12-11T12:55:23.514Z,50.72
2022-12-11T12:58:06.496Z,48.67
2022-12-11T13:00:44.356Z,53.10
2022-12-11T13:03:16.470Z,58.15
2022-12-11T13:06:06.054Z,64.57
2022-12-11T13:08:51.040Z,53.03
2022-12-11T13:11:21.654Z,53.88
2022-12-11T13:16:38.107Z,47.75
2022-12-11T13:19:24.139Z,53.85
2022-12-11T13:22:21.498Z,60.08
2022-12-11T13:24:53.612Z,57.30
2022-12-11T13:27:44.514Z,64.60
2022-12-11T13:30:15.387Z,54.42
2022-12-11T13:33:04.122Z,75.20
2022-12-11T13:35:38.492Z,63.25
2022-12-11T13:38:21.666Z,58.03
2022-12-11T13:43:37.739Z,58.00
2022-12-11T13:46:10.697Z,57.88
2022-12-11T13:48:41.337Z,58.88
2022-12-11T13:53:44.567Z,54.38
2022-12-11T13:56:21.129Z,49.63
2022-12-11T13:58:51.352Z,49.45
2022-12-11T14:01:29.270Z,51.08
2022-12-11T14:04:08.911Z,51.72
2022-12-11T14:06:47.669Z,52.03
2022-12-11T14:09:22.739Z,49.90
2022-12-11T14:11:56.791Z,51.65
2022-12-11T14:14:34.925Z,56.78
2022-12-11T14:17:05.206Z,51.92
2022-12-11T14:19:38.238Z,47.85
2022-12-11T14:22:27.856Z,55.33
2022-12-11T14:25:03.897Z,54.05
2022-12-11T14:27:31.815Z,59.75
2022-12-11T14:30:11.441Z,73.68
2022-12-11T14:32:49.082Z,58.10
2022-12-11T14:35:40.417Z,56.92
2022-12-11T14:38:19.408Z,63.47
2022-12-11T14:40:51.702Z,55.35
2022-12-11T14:43:53.318Z,56.75
2022-12-11T14:46:27.087Z,61.83
2022-12-11T14:49:01.504Z,62.15
2022-12-11T14:51:35.362Z,64.90
2022-12-11T14:54:04.701Z,72.68
2022-12-11T14:56:33.740Z,78.30
2022-12-11T14:59:05.381Z,77.95
2022-12-11T15:01:37.951Z,79.53
2022-12-11T15:04:18.438Z,79.65
2022-12-11T15:06:48.664Z,89.03
2022-12-11T15:09:25.633Z,76.60
2022-12-11T15:11:55.969Z,114.03
2022-12-11T15:14:27.782Z,89.57
2022-12-11T15:17:12.537Z,87.53
2022-12-11T15:19:40.886Z,133.00
2022-12-11T15:22:09.965Z,143.55
2022-12-11T15:24:43.197Z,157.05
2022-12-11T15:27:36.886Z,128.60
2022-12-11T15:30:29.283Z,108.32
2022-12-11T15:33:13.433Z,137.07
2022-12-11T15:36:00.844Z,135.43
2022-12-11T15:38:47.566Z,105.65
2022-12-11T15:41:21.230Z,201.77
2022-12-11T15:43:58.624Z,187.40
2022-12-11T15:46:27.512Z,173.45
2022-12-11T15:48:57.694Z,170.55
2022-12-11T15:51:27.558Z,148.50
2022-12-11T15:53:55.538Z,119.78
2022-12-11T15:56:23.371Z,170.50
2022-12-11T15:58:51.459Z,200.57
2022-12-11T16:01:21.949Z,133.57
2022-12-11T16:06:18.521Z,92.13
2022-12-11T16:08:46.688Z,118.43
2022-12-11T16:11:15.090Z,108.30
2022-12-11T16:13:51.353Z,98.28
2022-12-11T16:16:32.009Z,104.70
2022-12-11T16:21:27.389Z,85.32
2022-12-11T16:23:55.140Z,109.00
2022-12-11T16:26:23.137Z,100.07
2022-12-11T16:28:51.139Z,81.57
2022-12-11T16:31:19.072Z,109.65
2022-12-11T16:33:47.498Z,105.15
2022-12-11T16:36:23.514Z,94.57
2022-12-11T16:38:53.916Z,89.97
2022-12-11T16:41:23.073Z,141.82
2022-12-11T16:43:51.110Z,94.53
2022-12-11T16:46:20.346Z,159.90
2022-12-11T16:48:48.725Z,118.68
2022-12-11T16:51:17.218Z,110.47
2022-12-11T16:53:44.950Z,130.65
2022-12-11T16:56:14.078Z,115.93
2022-12-11T16:58:41.926Z,100.25
2022-12-11T17:01:14.145Z,103.75
2022-12-11T17:03:43.247Z,123.57
2022-12-11T17:06:14.310Z,102.97
2022-12-11T17:08:42.834Z,94.85
2022-12-11T17:11:15.266Z,87.70
2022-12-11T17:13:46.410Z,83.03
2022-12-11T17:16:18.385Z,86.35
2022-12-11T17:18:46.509Z,83.18
2022-12-11T17:21:16.958Z,97.18
2022-12-11T17:23:45.652Z,97.18
2022-12-11T17:26:16.956Z,93.60
2022-12-11T17:28:45.135Z,102.32
2022-12-11T17:31:16.793Z,106.32
2022-12-11T17:33:46.339Z,102.55
2022-12-11T17:36:19.312Z,104.40
2022-12-11T17:38:47.350Z,98.50
2022-12-11T17:41:20.287Z,95.13
2022-12-11T17:43:50.977Z,93.20
2022-12-11T17:49:36.567Z,79.78
2022-12-11T17:52:04.425Z,73.07
2022-12-11T17:54:32.403Z,76.22
2022-12-11T17:57:00.327Z,75.88
2022-12-11T17:59:28.015Z,83.63
2022-12-11T18:01:57.291Z,81.88
2022-12-11T18:04:25.561Z,80.65
2022-12-11T18:06:53.290Z,79.47
2022-12-11T18:09:21.010Z,76.35
2022-12-11T18:11:48.629Z,80.63
2022-12-11T18:14:17.533Z,77.68
2022-12-11T18:16:45.752Z,77.90
2022-12-11T18:19:14.847Z,77.60
2022-12-11T18:21:45.775Z,75.03
2022-12-11T18:24:21.540Z,85.68
2022-12-11T18:27:27.147Z,92.30
2022-12-11T18:30:14.942Z,84.80
2022-12-11T18:32:50.130Z,86.38
2022-12-11T18:35:24.794Z,81.32
2022-12-11T18:37:59.415Z,79.72
2022-12-11T18:40:43.320Z,87.55
2022-12-11T18:43:20.209Z,82.93
2022-12-11T18:46:06.105Z,89.28
2022-12-11T18:48:40.884Z,89.82
2022-12-11T18:51:18.630Z,82.93
2022-12-11T18:53:54.669Z,78.93
2022-12-11T18:56:33.918Z,80.25
2022-12-11T18:59:08.915Z,92.68
2022-12-11T19:01:50.759Z,82.15
2022-12-11T19:04:49.612Z,114.22
2022-12-11T19:07:21.952Z,92.80
2022-12-11T19:10:06.317Z,75.47
2022-12-11T19:12:44.206Z,69.65
2022-12-11T19:15:23.983Z,79.28
2022-12-11T19:18:27.743Z,98.30
2022-12-11T19:21:22.121Z,77.63
2022-12-11T19:24:15.429Z,65.88
2022-12-11T19:26:45.875Z,70.95
2022-12-11T19:29:34.254Z,67.35
2022-12-11T19:32:36.273Z,60.72
2022-12-11T19:35:11.777Z,63.17
2022-12-11T19:38:46.843Z,62.60
2022-12-11T19:42:18.222Z,61.63
2022-12-11T19:44:38.921Z,54.30
2022-12-11T19:47:21.128Z,55.95
2022-12-11T19:50:08.734Z,49.42
2022-12-11T19:53:00.248Z,54.83
2022-12-11T19:55:32.881Z,48.75
2022-12-11T19:58:08.359Z,53.65
2022-12-11T20:00:47.748Z,49.50
2022-12-11T20:03:20.140Z,52.75
2022-12-11T20:06:01.847Z,47.80
2022-12-11T20:08:45.874Z,57.10
2022-12-11T20:11:30.867Z,62.83
2022-12-11T20:14:06.388Z,66.60
2022-12-11T20:17:09.762Z,75.32
2022-12-11T20:19:56.967Z,56.75
2022-12-11T20:22:25.359Z,58.92
2022-12-11T20:25:13.594Z,50.47
2022-12-11T20:30:55.381Z,52.53
2022-12-11T20:33:50.968Z,60.03
2022-12-11T20:36:32.825Z,53.03
2022-12-11T20:39:01.393Z,50.00
2022-12-11T20:41:32.681Z,48.30
2022-12-11T20:44:07.587Z,48.75
2022-12-11T20:46:38.548Z,41.80
2022-12-11T20:51:53.292Z,44.50
2022-12-11T20:54:30.923Z,45.15
2022-12-11T20:57:09.633Z,40.45
2022-12-11T20:59:49.697Z,41.47
2022-12-11T21:02:28.068Z,46.83
2022-12-11T21:05:21.385Z,39.50
2022-12-11T21:07:58.611Z,44.78
2022-12-11T21:10:41.585Z,45.65
2022-12-11T21:13:16.982Z,43.28
2022-12-11T21:16:04.351Z,43.17
2022-12-11T21:18:47.232Z,42.60
2022-12-11T21:21:19.859Z,45.40
2022-12-11T21:23:57.718Z,46.17
2022-12-11T21:26:33.473Z,43.53
2022-12-11T21:29:18.560Z,46.28
2022-12-11T21:31:56.697Z,42.83
2022-12-11T21:34:38.041Z,48.50
2022-12-11T21:37:35.502Z,39.75
2022-12-11T21:40:18.013Z,43.13
2022-12-11T21:42:47.311Z,43.58
2022-12-11T21:45:59.831Z,47.10
2022-12-11T21:48:20.987Z,41.10
2022-12-11T21:51:12.058Z,43.78
2022-12-11T21:53:50.565Z,45.47
2022-12-11T21:56:22.529Z,48.78
2022-12-11T21:58:52.494Z,46.53
2022-12-11T22:01:26.500Z,46.38
2022-12-11T22:04:06.513Z,48.78
2022-12-11T22:06:38.781Z,46.85
2022-12-11T22:09:16.857Z,47.85
2022-12-11T22:11:46.720Z,48.63
2022-12-11T22:14:16.411Z,42.58
2022-12-11T22:16:44.694Z,49.13
2022-12-11T22:19:13.693Z,49.22
2022-12-11T22:21:41.714Z,39.70
2022-12-11T22:24:09.594Z,49.35
2022-12-11T22:26:39.854Z,43.55
2022-12-11T22:29:17.931Z,40.05
2022-12-11T22:31:48.753Z,44.30
2022-12-11T22:34:16.677Z,52.60
2022-12-11T22:37:06.757Z,39.08
2022-12-11T22:40:13.009Z,38.45
2022-12-11T22:42:45.409Z,41.38
2022-12-11T22:45:22.002Z,37.92
2022-12-11T22:48:11.965Z,36.90
2022-12-11T22:50:40.635Z,40.23
2022-12-11T22:53:16.244Z,33.92
2022-12-11T22:55:52.769Z,33.75
2022-12-11T22:58:22.186Z,35.92
2022-12-11T23:00:55.161Z,34.35
2022-12-11T23:03:23.209Z,29.65
2022-12-11T23:06:01.927Z,27.58
2022-12-11T23:08:37.490Z,35.70
2022-12-11T23:11:41.966Z,29.83
2022-12-11T23:14:17.582Z,29.35
2022-12-11T23:16:56.260Z,31.05
2022-12-11T23:19:33.552Z,28.05
2022-12-11T23:22:15.127Z,27.27
2022-12-11T23:24:57.721Z,25.20
2022-12-11T23:27:28.150Z,26.65
2022-12-11T23:30:05.812Z,29.13
2022-12-11T23:32:37.367Z,27.05
2022-12-11T23:35:09.178Z,26.30
2022-12-11T23:37:40.305Z,25.90
2022-12-11T23:40:10.173Z,23.45
2022-12-11T23:42:58.768Z,23.63
2022-12-11T23:45:46.180Z,25.85
2022-12-11T23:48:17.491Z,21.77
2022-12-11T23:50:50.131Z,23.23
2022-12-11T23:53:20.715Z,22.60
2022-12-11T23:55:54.518Z,21.98
2022-12-11T23:58:28.283Z,24.48
